UAL1180 KDEN-KCOS
Flight info
| Callsign | UAL1180 |
|---|---|
| Flight time | 0h 29m |
| Altitude | 11000 |
| Route | LUFSE V389 ADANE BRK |
| Aircraft | A319/M-SDE3FGHIRWY/LB1 |
Departure
| Time | 2026-04-22 21:33 |
|---|---|
| Airport | Denver International Airport (KDEN) |
Arrival
| Time | 2026-04-22 22:03 |
|---|---|
| Airport | City of Colorado Springs Municipal Airport (KCOS) |
| Time | Latitude | Longitude | Altitude | Speed | Heading |
|---|---|---|---|---|---|
| 2026-04-22 21:10 | 39.85936 | -104.67839 | 5387 ft | 0 kts | 180° |
| 2026-04-22 21:21 | 39.85939 | -104.67839 | 5387 ft | 2 kts | 180° |
| 2026-04-22 21:22 | 39.85965 | -104.67839 | 5385 ft | 4 kts | 179° |
| 2026-04-22 21:22 | 39.85991 | -104.67843 | 5382 ft | 4 kts | 159° |
| 2026-04-22 21:22 | 39.86010 | -104.67860 | 5384 ft | 4 kts | 105° |
| 2026-04-22 21:22 | 39.86011 | -104.67870 | 5383 ft | 0 kts | 90° |
| 2026-04-22 21:27 | 39.86012 | -104.67825 | 5387 ft | 10 kts | 89° |
| 2026-04-22 21:28 | 39.86014 | -104.67702 | 5387 ft | 17 kts | 91° |
| 2026-04-22 21:28 | 39.86009 | -104.67514 | 5387 ft | 24 kts | 91° |
| 2026-04-22 21:28 | 39.86007 | -104.67265 | 5387 ft | 31 kts | 91° |
| 2026-04-22 21:28 | 39.86004 | -104.66970 | 5387 ft | 34 kts | 85° |
| 2026-04-22 21:29 | 39.86059 | -104.66678 | 5387 ft | 34 kts | 90° |
| 2026-04-22 21:29 | 39.86108 | -104.66425 | 5386 ft | 28 kts | 79° |
| 2026-04-22 21:29 | 39.86148 | -104.66225 | 5384 ft | 21 kts | 360° |
| 2026-04-22 21:29 | 39.86302 | -104.66229 | 5382 ft | 24 kts | 359° |
| 2026-04-22 21:30 | 39.86477 | -104.66217 | 5384 ft | 25 kts | 30° |
| 2026-04-22 21:30 | 39.86499 | -104.65979 | 5376 ft | 30 kts | 90° |
| 2026-04-22 21:30 | 39.86499 | -104.65694 | 5368 ft | 33 kts | 90° |
| 2026-04-22 21:30 | 39.86493 | -104.65375 | 5359 ft | 37 kts | 90° |
| 2026-04-22 21:31 | 39.86493 | -104.65032 | 5354 ft | 39 kts | 90° |
| 2026-04-22 21:31 | 39.86492 | -104.64673 | 5347 ft | 41 kts | 90° |
| 2026-04-22 21:31 | 39.86491 | -104.64298 | 5335 ft | 35 kts | 91° |
| 2026-04-22 21:31 | 39.86468 | -104.64141 | 5333 ft | 9 kts | 137° |
| 2026-04-22 21:32 | 39.86411 | -104.64133 | 5338 ft | 10 kts | 180° |
| 2026-04-22 21:32 | 39.86210 | -104.64137 | 5342 ft | 52 kts | 181° |
| 2026-04-22 21:32 | 39.85682 | -104.64143 | 5353 ft | 100 kts | 181° |
| 2026-04-22 21:32 | 39.84813 | -104.64152 | 5359 ft | 148 kts | 180° |
| 2026-04-22 21:33 | 39.83632 | -104.64161 | 5403 ft | 187 kts | 180° |
| 2026-04-22 21:33 | 39.82799 | -104.64149 | 5983 ft | 175 kts | 185° |
| 2026-04-22 21:33 | 39.81577 | -104.64143 | 6530 ft | 179 kts | 187° |
| 2026-04-22 21:33 | 39.80324 | -104.64108 | 7139 ft | 185 kts | 178° |
| 2026-04-22 21:34 | 39.78993 | -104.63705 | 7431 ft | 209 kts | 169° |
| 2026-04-22 21:34 | 39.77536 | -104.63075 | 7709 ft | 232 kts | 168° |
| 2026-04-22 21:34 | 39.75933 | -104.62336 | 7958 ft | 257 kts | 167° |
| 2026-04-22 21:34 | 39.74184 | -104.61525 | 8419 ft | 274 kts | 166° |
| 2026-04-22 21:35 | 39.72357 | -104.60682 | 9097 ft | 282 kts | 165° |
| 2026-04-22 21:35 | 39.70492 | -104.59831 | 9885 ft | 286 kts | 167° |
| 2026-04-22 21:35 | 39.68583 | -104.58974 | 10390 ft | 300 kts | 166° |
| 2026-04-22 21:35 | 39.66532 | -104.58071 | 10619 ft | 322 kts | 166° |
| 2026-04-22 21:36 | 39.64364 | -104.57124 | 10914 ft | 333 kts | 165° |
| 2026-04-22 21:36 | 39.62150 | -104.56154 | 10968 ft | 342 kts | 166° |
| 2026-04-22 21:36 | 39.59881 | -104.55162 | 10957 ft | 345 kts | 166° |
| 2026-04-22 21:36 | 39.57599 | -104.54163 | 10918 ft | 347 kts | 165° |
| 2026-04-22 21:37 | 39.54532 | -104.52820 | 10911 ft | 349 kts | 166° |
| 2026-04-22 21:37 | 39.53011 | -104.52154 | 10907 ft | 349 kts | 166° |
| 2026-04-22 21:37 | 39.50707 | -104.51146 | 10895 ft | 349 kts | 166° |
| 2026-04-22 21:37 | 39.48401 | -104.50139 | 10896 ft | 350 kts | 166° |
| 2026-04-22 21:38 | 39.46095 | -104.49135 | 10894 ft | 349 kts | 166° |
| 2026-04-22 21:38 | 39.43785 | -104.48132 | 10881 ft | 350 kts | 166° |
| 2026-04-22 21:38 | 39.41473 | -104.47128 | 10869 ft | 351 kts | 167° |
| 2026-04-22 21:38 | 39.39158 | -104.46125 | 10856 ft | 351 kts | 166° |
| 2026-04-22 21:39 | 39.36848 | -104.45123 | 10854 ft | 351 kts | 166° |
| 2026-04-22 21:39 | 39.34533 | -104.44119 | 10846 ft | 351 kts | 166° |
| 2026-04-22 21:39 | 39.32215 | -104.43118 | 10841 ft | 351 kts | 166° |
| 2026-04-22 21:39 | 39.29897 | -104.42118 | 10839 ft | 351 kts | 165° |
| 2026-04-22 21:40 | 39.27576 | -104.41114 | 10847 ft | 352 kts | 165° |
| 2026-04-22 21:40 | 39.25254 | -104.40109 | 10868 ft | 352 kts | 165° |
| 2026-04-22 21:40 | 39.22928 | -104.39119 | 10889 ft | 351 kts | 167° |
| 2026-04-22 21:40 | 39.20565 | -104.38572 | 10915 ft | 347 kts | 180° |
| 2026-04-22 21:41 | 39.18164 | -104.38605 | 10937 ft | 345 kts | 185° |
| 2026-04-22 21:41 | 39.15765 | -104.38732 | 10960 ft | 345 kts | 186° |
| 2026-04-22 21:41 | 39.13372 | -104.38847 | 10986 ft | 344 kts | 185° |
| 2026-04-22 21:41 | 39.11002 | -104.38956 | 11013 ft | 337 kts | 185° |
| 2026-04-22 21:42 | 39.08675 | -104.39061 | 11036 ft | 334 kts | 185° |
| 2026-04-22 21:42 | 39.06345 | -104.39172 | 11053 ft | 335 kts | 185° |
| 2026-04-22 21:42 | 39.04016 | -104.39289 | 11074 ft | 333 kts | 184° |
| 2026-04-22 21:42 | 39.01699 | -104.39406 | 11086 ft | 334 kts | 185° |
| 2026-04-22 21:43 | 38.99376 | -104.39519 | 11097 ft | 333 kts | 185° |
| 2026-04-22 21:43 | 38.97077 | -104.39752 | 11101 ft | 331 kts | 194° |
| 2026-04-22 21:43 | 38.94992 | -104.40932 | 11119 ft | 330 kts | 215° |
| 2026-04-22 21:43 | 38.93394 | -104.43001 | 11131 ft | 329 kts | 235° |
| 2026-04-22 21:44 | 38.92539 | -104.45746 | 11153 ft | 337 kts | 257° |
| 2026-04-22 21:44 | 38.92613 | -104.48770 | 11147 ft | 342 kts | 276° |
| 2026-04-22 21:44 | 38.92977 | -104.51736 | 10864 ft | 332 kts | 274° |
| 2026-04-22 21:44 | 38.93335 | -104.54602 | 10653 ft | 320 kts | 275° |
| 2026-04-22 21:45 | 38.93678 | -104.57389 | 10458 ft | 309 kts | 274° |
| 2026-04-22 21:45 | 38.94000 | -104.60060 | 10349 ft | 297 kts | 273° |
| 2026-04-22 21:45 | 38.94305 | -104.62634 | 10210 ft | 286 kts | 276° |
| 2026-04-22 21:45 | 38.94599 | -104.65130 | 9950 ft | 282 kts | 275° |
| 2026-04-22 21:46 | 38.94728 | -104.67636 | 9454 ft | 277 kts | 256° |
| 2026-04-22 21:46 | 38.94008 | -104.69819 | 9022 ft | 260 kts | 229° |
| 2026-04-22 21:46 | 38.92633 | -104.71171 | 8748 ft | 237 kts | 201° |
| 2026-04-22 21:46 | 38.91138 | -104.71549 | 8742 ft | 209 kts | 183° |
| 2026-04-22 21:47 | 38.89712 | -104.71564 | 8348 ft | 202 kts | 183° |
| 2026-04-22 21:47 | 38.88320 | -104.71570 | 7822 ft | 198 kts | 181° |
| 2026-04-22 21:47 | 38.86957 | -104.71575 | 7356 ft | 193 kts | 185° |
| 2026-04-22 21:47 | 38.85666 | -104.71589 | 6973 ft | 174 kts | 187° |
| 2026-04-22 21:48 | 38.84666 | -104.72189 | 7273 ft | 156 kts | 222° |
| 2026-04-22 21:48 | 38.84038 | -104.73406 | 7457 ft | 181 kts | 249° |
| 2026-04-22 21:48 | 38.84125 | -104.75130 | 7776 ft | 209 kts | 281° |
| 2026-04-22 21:48 | 38.85041 | -104.76663 | 8275 ft | 229 kts | 317° |
| 2026-04-22 21:49 | 38.86574 | -104.77382 | 8811 ft | 245 kts | 348° |
| 2026-04-22 21:49 | 38.88294 | -104.77496 | 8823 ft | 244 kts | 356° |
| 2026-04-22 21:49 | 38.89996 | -104.77496 | 8780 ft | 248 kts | 356° |
| 2026-04-22 21:49 | 38.91711 | -104.77489 | 8786 ft | 243 kts | 358° |
| 2026-04-22 21:50 | 38.93390 | -104.77487 | 8780 ft | 243 kts | 356° |
| 2026-04-22 21:50 | 38.95088 | -104.77471 | 8782 ft | 242 kts | 358° |
| 2026-04-22 21:50 | 38.96755 | -104.77440 | 8764 ft | 241 kts | 0° |
| 2026-04-22 21:50 | 38.98354 | -104.76734 | 8781 ft | 245 kts | 36° |
| 2026-04-22 21:51 | 38.99419 | -104.75107 | 8778 ft | 237 kts | 70° |
| 2026-04-22 21:51 | 38.99641 | -104.73106 | 8777 ft | 221 kts | 109° |
| 2026-04-22 21:51 | 38.99009 | -104.71423 | 8781 ft | 206 kts | 139° |
| 2026-04-22 21:52 | 38.96513 | -104.70378 | 8755 ft | 188 kts | 192° |
| 2026-04-22 21:52 | 38.95279 | -104.70961 | 8784 ft | 190 kts | 201° |
| 2026-04-22 21:52 | 38.93986 | -104.71345 | 8635 ft | 194 kts | 190° |
| 2026-04-22 21:52 | 38.92669 | -104.71467 | 8333 ft | 184 kts | 184° |
| 2026-04-22 21:53 | 38.91447 | -104.71509 | 8087 ft | 168 kts | 183° |
| 2026-04-22 21:53 | 38.90356 | -104.71527 | 7903 ft | 148 kts | 183° |
| 2026-04-22 21:53 | 38.89339 | -104.71539 | 7749 ft | 143 kts | 185° |
| 2026-04-22 21:53 | 38.88369 | -104.71546 | 7584 ft | 139 kts | 184° |
| 2026-04-22 21:54 | 38.87396 | -104.71554 | 7387 ft | 136 kts | 184° |
| 2026-04-22 21:54 | 38.86465 | -104.71560 | 7022 ft | 132 kts | 184° |
| 2026-04-22 21:54 | 38.85540 | -104.71567 | 6900 ft | 133 kts | 186° |
| 2026-04-22 21:54 | 38.84584 | -104.71582 | 6718 ft | 139 kts | 188° |
| 2026-04-22 21:55 | 38.83636 | -104.71588 | 6481 ft | 136 kts | 187° |
| 2026-04-22 21:55 | 38.82696 | -104.71587 | 6309 ft | 135 kts | 188° |
| 2026-04-22 21:55 | 38.81788 | -104.71589 | 6196 ft | 118 kts | 182° |
| 2026-04-22 21:55 | 38.81040 | -104.71603 | 6243 ft | 113 kts | 193° |
| 2026-04-22 21:56 | 38.80158 | -104.71605 | 6513 ft | 139 kts | 185° |
| 2026-04-22 21:56 | 38.79119 | -104.71688 | 7005 ft | 159 kts | 189° |
| 2026-04-22 21:56 | 38.78145 | -104.72386 | 7678 ft | 172 kts | 225° |
| 2026-04-22 21:56 | 38.77641 | -104.73905 | 8082 ft | 206 kts | 257° |
| 2026-04-22 21:57 | 38.77917 | -104.75819 | 8087 ft | 233 kts | 290° |
| 2026-04-22 21:57 | 38.79046 | -104.77383 | 8103 ft | 249 kts | 323° |
| 2026-04-22 21:57 | 38.80716 | -104.78056 | 8116 ft | 255 kts | 351° |
| 2026-04-22 21:57 | 38.82499 | -104.78148 | 8109 ft | 259 kts | 355° |
| 2026-04-22 21:58 | 38.84303 | -104.78151 | 8104 ft | 258 kts | 357° |
| 2026-04-22 21:58 | 38.86101 | -104.78149 | 8118 ft | 261 kts | 357° |
| 2026-04-22 21:58 | 38.87915 | -104.78153 | 8103 ft | 260 kts | 358° |
| 2026-04-22 21:58 | 38.89718 | -104.78163 | 8074 ft | 261 kts | 358° |
| 2026-04-22 21:59 | 38.91471 | -104.77605 | 8078 ft | 260 kts | 30° |
| 2026-04-22 21:59 | 38.92790 | -104.76086 | 8081 ft | 255 kts | 59° |
| 2026-04-22 21:59 | 38.93416 | -104.74034 | 8072 ft | 239 kts | 92° |
| 2026-04-22 21:59 | 38.93231 | -104.72126 | 8082 ft | 198 kts | 122° |
| 2026-04-22 22:00 | 38.92417 | -104.71049 | 8051 ft | 147 kts | 163° |
| 2026-04-22 22:00 | 38.91437 | -104.71146 | 7737 ft | 146 kts | 199° |
| 2026-04-22 22:00 | 38.90497 | -104.71413 | 7637 ft | 139 kts | 187° |
| 2026-04-22 22:00 | 38.89552 | -104.71544 | 7462 ft | 140 kts | 188° |
| 2026-04-22 22:01 | 38.88590 | -104.71529 | 7417 ft | 135 kts | 188° |
| 2026-04-22 22:01 | 38.87654 | -104.71586 | 7250 ft | 132 kts | 188° |
| 2026-04-22 22:01 | 38.86739 | -104.71598 | 6960 ft | 134 kts | 187° |
| 2026-04-22 22:01 | 38.85784 | -104.71586 | 6866 ft | 135 kts | 186° |
| 2026-04-22 22:02 | 38.84842 | -104.71554 | 6680 ft | 135 kts | 188° |
| 2026-04-22 22:02 | 38.83917 | -104.71599 | 6563 ft | 134 kts | 185° |
| 2026-04-22 22:02 | 38.82990 | -104.71588 | 6348 ft | 132 kts | 186° |
| 2026-04-22 22:02 | 38.82084 | -104.71588 | 6200 ft | 125 kts | 184° |
| 2026-04-22 22:03 | 38.81334 | -104.71598 | 6192 ft | 89 kts | 180° |
| 2026-04-22 22:03 | 38.80890 | -104.71594 | 6196 ft | 40 kts | 180° |
| 2026-04-22 22:03 | 38.80655 | -104.71595 | 6194 ft | 35 kts | 176° |
| 2026-04-22 22:03 | 38.80417 | -104.71471 | 6193 ft | 39 kts | 147° |
| 2026-04-22 22:04 | 38.80279 | -104.71274 | 6193 ft | 28 kts | 85° |
| 2026-04-22 22:04 | 38.80280 | -104.71014 | 6193 ft | 30 kts | 89° |
| 2026-04-22 22:04 | 38.80281 | -104.70736 | 6194 ft | 32 kts | 90° |
| 2026-04-22 22:04 | 38.80278 | -104.70442 | 6194 ft | 34 kts | 91° |
| 2026-04-22 22:05 | 38.80278 | -104.70134 | 6194 ft | 28 kts | 92° |
| 2026-04-22 22:05 | 38.80125 | -104.70083 | 6194 ft | 19 kts | 181° |
| 2026-04-22 22:05 | 38.80067 | -104.69981 | 6194 ft | 14 kts | 119° |
| 2026-04-22 22:05 | 38.79985 | -104.69960 | 6194 ft | 14 kts | 200° |
| 2026-04-22 22:06 | 38.79976 | -104.70019 | 6194 ft | 1 kts | 266° |
| 2026-04-22 22:06 | 38.79975 | -104.70028 | 6194 ft | 0 kts | 264° |